sensor_id;sensor_type;location;lat;lon;timestamp;P1;durP1;ratioP1;P2;durP2;ratioP2
19780;SDS011;10050;55.492;13.506;2022-12-26T00:01:30;26.10;;;9.20;;
19780;SDS011;10050;55.492;13.506;2022-12-26T00:03:56;25.40;;;10.20;;
19780;SDS011;10050;55.492;13.506;2022-12-26T00:06:23;18.63;;;9.63;;
19780;SDS011;10050;55.492;13.506;2022-12-26T00:08:51;25.70;;;9.83;;
19780;SDS011;10050;55.492;13.506;2022-12-26T00:11:17;25.43;;;10.40;;
19780;SDS011;10050;55.492;13.506;2022-12-26T00:13:43;26.70;;;10.23;;
19780;SDS011;10050;55.492;13.506;2022-12-26T00:16:12;28.27;;;10.07;;
19780;SDS011;10050;55.492;13.506;2022-12-26T00:18:40;28.17;;;11.23;;
19780;SDS011;10050;55.492;13.506;2022-12-26T00:21:07;27.13;;;11.40;;
19780;SDS011;10050;55.492;13.506;2022-12-26T00:23:34;25.10;;;10.67;;
19780;SDS011;10050;55.492;13.506;2022-12-26T00:26:01;31.20;;;11.43;;
19780;SDS011;10050;55.492;13.506;2022-12-26T00:28:38;28.83;;;11.27;;
19780;SDS011;10050;55.492;13.506;2022-12-26T00:31:05;33.30;;;10.90;;
19780;SDS011;10050;55.492;13.506;2022-12-26T00:33:32;30.90;;;11.00;;
19780;SDS011;10050;55.492;13.506;2022-12-26T00:36:03;35.90;;;12.17;;
19780;SDS011;10050;55.492;13.506;2022-12-26T00:38:32;36.40;;;10.73;;
19780;SDS011;10050;55.492;13.506;2022-12-26T00:40:58;28.23;;;10.93;;
19780;SDS011;10050;55.492;13.506;2022-12-26T00:43:25;31.60;;;11.13;;
19780;SDS011;10050;55.492;13.506;2022-12-26T00:45:50;32.77;;;11.40;;
19780;SDS011;10050;55.492;13.506;2022-12-26T00:48:16;27.53;;;11.33;;
19780;SDS011;10050;55.492;13.506;2022-12-26T00:50:42;31.37;;;11.13;;
19780;SDS011;10050;55.492;13.506;2022-12-26T00:53:07;29.80;;;11.70;;
19780;SDS011;10050;55.492;13.506;2022-12-26T00:55:33;34.60;;;11.57;;
19780;SDS011;10050;55.492;13.506;2022-12-26T00:57:58;36.17;;;11.87;;
19780;SDS011;10050;55.492;13.506;2022-12-26T01:00:24;28.03;;;11.57;;
19780;SDS011;10050;55.492;13.506;2022-12-26T01:02:50;34.90;;;12.63;;
19780;SDS011;10050;55.492;13.506;2022-12-26T01:05:15;33.83;;;11.83;;
19780;SDS011;10050;55.492;13.506;2022-12-26T01:07:41;38.37;;;13.00;;
19780;SDS011;10050;55.492;13.506;2022-12-26T01:10:08;37.50;;;12.77;;
19780;SDS011;10050;55.492;13.506;2022-12-26T01:12:36;38.57;;;12.13;;
19780;SDS011;10050;55.492;13.506;2022-12-26T01:15:04;37.03;;;13.27;;
19780;SDS011;10050;55.492;13.506;2022-12-26T01:17:30;42.27;;;13.30;;
19780;SDS011;10050;55.492;13.506;2022-12-26T01:19:56;36.30;;;12.90;;
19780;SDS011;10050;55.492;13.506;2022-12-26T01:22:22;48.90;;;14.60;;
19780;SDS011;10050;55.492;13.506;2022-12-26T01:24:51;33.60;;;13.90;;
19780;SDS011;10050;55.492;13.506;2022-12-26T01:27:21;32.30;;;14.13;;
19780;SDS011;10050;55.492;13.506;2022-12-26T01:29:48;36.47;;;13.87;;
19780;SDS011;10050;55.492;13.506;2022-12-26T01:32:13;47.13;;;15.63;;
19780;SDS011;10050;55.492;13.506;2022-12-26T01:34:39;36.93;;;13.77;;
19780;SDS011;10050;55.492;13.506;2022-12-26T01:37:05;34.83;;;13.27;;
19780;SDS011;10050;55.492;13.506;2022-12-26T01:39:30;31.23;;;12.57;;
19780;SDS011;10050;55.492;13.506;2022-12-26T01:41:56;41.23;;;12.97;;
19780;SDS011;10050;55.492;13.506;2022-12-26T01:50:18;27.53;;;11.33;;
19780;SDS011;10050;55.492;13.506;2022-12-26T01:53:22;28.13;;;10.90;;
19780;SDS011;10050;55.492;13.506;2022-12-26T01:55:52;28.80;;;10.57;;
19780;SDS011;10050;55.492;13.506;2022-12-26T01:58:24;31.93;;;10.93;;
19780;SDS011;10050;55.492;13.506;2022-12-26T02:00:53;28.50;;;10.73;;
19780;SDS011;10050;55.492;13.506;2022-12-26T02:03:19;29.57;;;10.87;;
19780;SDS011;10050;55.492;13.506;2022-12-26T02:06:04;28.43;;;10.23;;
19780;SDS011;10050;55.492;13.506;2022-12-26T02:08:32;28.13;;;11.50;;
19780;SDS011;10050;55.492;13.506;2022-12-26T02:11:02;21.07;;;10.03;;
19780;SDS011;10050;55.492;13.506;2022-12-26T02:13:30;27.70;;;9.40;;
19780;SDS011;10050;55.492;13.506;2022-12-26T02:15:58;28.90;;;9.47;;
19780;SDS011;10050;55.492;13.506;2022-12-26T02:18:24;22.90;;;9.57;;
19780;SDS011;10050;55.492;13.506;2022-12-26T02:20:56;23.43;;;9.67;;
19780;SDS011;10050;55.492;13.506;2022-12-26T02:28:37;20.57;;;8.97;;
19780;SDS011;10050;55.492;13.506;2022-12-26T02:36:41;22.43;;;9.17;;
19780;SDS011;10050;55.492;13.506;2022-12-26T02:42:05;21.53;;;9.13;;
19780;SDS011;10050;55.492;13.506;2022-12-26T02:54:08;18.17;;;7.87;;
19780;SDS011;10050;55.492;13.506;2022-12-26T02:57:04;16.03;;;8.30;;
19780;SDS011;10050;55.492;13.506;2022-12-26T03:03:14;21.93;;;8.17;;
19780;SDS011;10050;55.492;13.506;2022-12-26T03:06:02;19.27;;;7.67;;
19780;SDS011;10050;55.492;13.506;2022-12-26T03:08:56;17.50;;;8.10;;
19780;SDS011;10050;55.492;13.506;2022-12-26T03:11:47;15.63;;;7.50;;
19780;SDS011;10050;55.492;13.506;2022-12-26T03:14:56;21.67;;;8.20;;
19780;SDS011;10050;55.492;13.506;2022-12-26T03:17:27;18.93;;;8.23;;
19780;SDS011;10050;55.492;13.506;2022-12-26T03:20:05;20.23;;;8.27;;
19780;SDS011;10050;55.492;13.506;2022-12-26T03:22:37;16.13;;;7.93;;
19780;SDS011;10050;55.492;13.506;2022-12-26T03:25:23;19.67;;;7.77;;
19780;SDS011;10050;55.492;13.506;2022-12-26T03:28:12;18.73;;;8.13;;
19780;SDS011;10050;55.492;13.506;2022-12-26T03:30:38;20.93;;;8.50;;
19780;SDS011;10050;55.492;13.506;2022-12-26T03:33:14;19.43;;;7.97;;
19780;SDS011;10050;55.492;13.506;2022-12-26T03:36:17;20.60;;;7.63;;
19780;SDS011;10050;55.492;13.506;2022-12-26T03:41:43;20.33;;;8.13;;
19780;SDS011;10050;55.492;13.506;2022-12-26T03:44:28;19.67;;;8.33;;
19780;SDS011;10050;55.492;13.506;2022-12-26T03:47:26;23.30;;;8.37;;
19780;SDS011;10050;55.492;13.506;2022-12-26T03:50:28;20.17;;;8.03;;
19780;SDS011;10050;55.492;13.506;2022-12-26T03:53:25;21.77;;;8.00;;
19780;SDS011;10050;55.492;13.506;2022-12-26T03:56:18;21.07;;;8.27;;
19780;SDS011;10050;55.492;13.506;2022-12-26T03:59:25;16.53;;;7.70;;
19780;SDS011;10050;55.492;13.506;2022-12-26T04:02:20;17.00;;;6.87;;
19780;SDS011;10050;55.492;13.506;2022-12-26T04:05:06;18.73;;;7.87;;
19780;SDS011;10050;55.492;13.506;2022-12-26T04:07:54;15.77;;;6.90;;
19780;SDS011;10050;55.492;13.506;2022-12-26T04:10:43;19.63;;;8.47;;
19780;SDS011;10050;55.492;13.506;2022-12-26T04:16:32;20.73;;;8.47;;
19780;SDS011;10050;55.492;13.506;2022-12-26T04:19:49;20.83;;;8.17;;
19780;SDS011;10050;55.492;13.506;2022-12-26T04:22:42;23.50;;;9.53;;
19780;SDS011;10050;55.492;13.506;2022-12-26T04:25:51;19.83;;;8.83;;
19780;SDS011;10050;55.492;13.506;2022-12-26T04:28:42;20.40;;;9.43;;
19780;SDS011;10050;55.492;13.506;2022-12-26T04:31:29;21.47;;;9.40;;
19780;SDS011;10050;55.492;13.506;2022-12-26T04:34:19;20.33;;;8.60;;
19780;SDS011;10050;55.492;13.506;2022-12-26T04:37:13;23.53;;;8.83;;
19780;SDS011;10050;55.492;13.506;2022-12-26T04:40:03;12.90;;;7.80;;
19780;SDS011;10050;55.492;13.506;2022-12-26T04:42:51;20.90;;;8.10;;
19780;SDS011;10050;55.492;13.506;2022-12-26T04:45:36;16.53;;;7.90;;
19780;SDS011;10050;55.492;13.506;2022-12-26T04:48:02;20.67;;;7.63;;
19780;SDS011;10050;55.492;13.506;2022-12-26T04:50:48;18.17;;;8.13;;
19780;SDS011;10050;55.492;13.506;2022-12-26T04:53:15;22.63;;;8.30;;
19780;SDS011;10050;55.492;13.506;2022-12-26T04:55:41;16.53;;;6.93;;
19780;SDS011;10050;55.492;13.506;2022-12-26T04:58:07;14.33;;;7.10;;
19780;SDS011;10050;55.492;13.506;2022-12-26T05:00:33;19.00;;;7.30;;
19780;SDS011;10050;55.492;13.506;2022-12-26T05:02:58;17.90;;;7.73;;
19780;SDS011;10050;55.492;13.506;2022-12-26T05:05:44;14.90;;;7.07;;
19780;SDS011;10050;55.492;13.506;2022-12-26T05:08:40;13.67;;;6.83;;
19780;SDS011;10050;55.492;13.506;2022-12-26T05:11:25;14.43;;;7.77;;
19780;SDS011;10050;55.492;13.506;2022-12-26T05:13:52;15.87;;;6.87;;
19780;SDS011;10050;55.492;13.506;2022-12-26T05:16:19;17.27;;;7.70;;
19780;SDS011;10050;55.492;13.506;2022-12-26T05:19:03;16.53;;;7.23;;
19780;SDS011;10050;55.492;13.506;2022-12-26T05:21:47;17.90;;;8.93;;
19780;SDS011;10050;55.492;13.506;2022-12-26T05:24:36;20.73;;;8.33;;
19780;SDS011;10050;55.492;13.506;2022-12-26T05:27:23;15.03;;;8.10;;
19780;SDS011;10050;55.492;13.506;2022-12-26T05:30:08;21.40;;;9.03;;
19780;SDS011;10050;55.492;13.506;2022-12-26T05:32:34;14.53;;;7.97;;
19780;SDS011;10050;55.492;13.506;2022-12-26T05:35:18;19.53;;;7.23;;
19780;SDS011;10050;55.492;13.506;2022-12-26T05:37:44;16.60;;;8.23;;
19780;SDS011;10050;55.492;13.506;2022-12-26T05:40:10;21.00;;;8.00;;
19780;SDS011;10050;55.492;13.506;2022-12-26T05:42:36;20.27;;;8.67;;
19780;SDS011;10050;55.492;13.506;2022-12-26T05:45:01;18.23;;;8.33;;
19780;SDS011;10050;55.492;13.506;2022-12-26T05:47:27;19.20;;;7.53;;
19780;SDS011;10050;55.492;13.506;2022-12-26T05:49:53;20.07;;;8.20;;
19780;SDS011;10050;55.492;13.506;2022-12-26T05:52:18;17.00;;;7.77;;
19780;SDS011;10050;55.492;13.506;2022-12-26T05:54:44;18.53;;;7.47;;
19780;SDS011;10050;55.492;13.506;2022-12-26T05:57:09;21.00;;;8.20;;
19780;SDS011;10050;55.492;13.506;2022-12-26T05:59:35;15.93;;;7.73;;
19780;SDS011;10050;55.492;13.506;2022-12-26T06:02:01;15.33;;;7.47;;
19780;SDS011;10050;55.492;13.506;2022-12-26T06:04:26;16.00;;;6.87;;
19780;SDS011;10050;55.492;13.506;2022-12-26T06:06:54;15.90;;;7.10;;
19780;SDS011;10050;55.492;13.506;2022-12-26T06:09:21;11.77;;;6.70;;
19780;SDS011;10050;55.492;13.506;2022-12-26T06:11:47;12.87;;;6.63;;
19780;SDS011;10050;55.492;13.506;2022-12-26T06:14:13;12.60;;;5.83;;
19780;SDS011;10050;55.492;13.506;2022-12-26T06:16:39;13.13;;;6.43;;
19780;SDS011;10050;55.492;13.506;2022-12-26T06:19:04;9.67;;;5.57;;
19780;SDS011;10050;55.492;13.506;2022-12-26T06:21:30;11.37;;;6.50;;
19780;SDS011;10050;55.492;13.506;2022-12-26T06:23:55;12.57;;;5.77;;
19780;SDS011;10050;55.492;13.506;2022-12-26T06:26:21;12.33;;;5.70;;
19780;SDS011;10050;55.492;13.506;2022-12-26T06:28:47;13.00;;;6.10;;
19780;SDS011;10050;55.492;13.506;2022-12-26T06:31:14;12.07;;;6.20;;
19780;SDS011;10050;55.492;13.506;2022-12-26T06:33:44;8.67;;;5.63;;
19780;SDS011;10050;55.492;13.506;2022-12-26T06:36:12;14.20;;;5.67;;
19780;SDS011;10050;55.492;13.506;2022-12-26T06:38:39;9.73;;;5.17;;
19780;SDS011;10050;55.492;13.506;2022-12-26T06:41:06;9.43;;;4.80;;
19780;SDS011;10050;55.492;13.506;2022-12-26T06:43:33;11.67;;;5.40;;
19780;SDS011;10050;55.492;13.506;2022-12-26T06:46:00;7.33;;;5.50;;
19780;SDS011;10050;55.492;13.506;2022-12-26T06:48:26;12.20;;;4.77;;
19780;SDS011;10050;55.492;13.506;2022-12-26T06:50:52;10.57;;;5.10;;
19780;SDS011;10050;55.492;13.506;2022-12-26T06:53:19;8.67;;;5.03;;
19780;SDS011;10050;55.492;13.506;2022-12-26T06:55:48;8.53;;;4.73;;
19780;SDS011;10050;55.492;13.506;2022-12-26T06:58:15;7.83;;;4.67;;
19780;SDS011;10050;55.492;13.506;2022-12-26T07:00:41;9.93;;;4.97;;
19780;SDS011;10050;55.492;13.506;2022-12-26T07:03:07;7.63;;;4.60;;
19780;SDS011;10050;55.492;13.506;2022-12-26T07:05:36;12.43;;;5.30;;
19780;SDS011;10050;55.492;13.506;2022-12-26T07:08:02;8.53;;;4.90;;
19780;SDS011;10050;55.492;13.506;2022-12-26T07:10:28;9.33;;;4.90;;
19780;SDS011;10050;55.492;13.506;2022-12-26T07:12:54;10.37;;;6.13;;
19780;SDS011;10050;55.492;13.506;2022-12-26T07:15:19;13.27;;;6.97;;
19780;SDS011;10050;55.492;13.506;2022-12-26T07:17:45;12.37;;;5.90;;
19780;SDS011;10050;55.492;13.506;2022-12-26T07:20:11;12.43;;;6.47;;
19780;SDS011;10050;55.492;13.506;2022-12-26T07:22:37;11.60;;;5.50;;
19780;SDS011;10050;55.492;13.506;2022-12-26T07:25:03;8.83;;;5.70;;
19780;SDS011;10050;55.492;13.506;2022-12-26T07:27:29;8.03;;;5.43;;
19780;SDS011;10050;55.492;13.506;2022-12-26T07:29:54;10.87;;;5.80;;
19780;SDS011;10050;55.492;13.506;2022-12-26T07:32:20;9.90;;;4.77;;
19780;SDS011;10050;55.492;13.506;2022-12-26T07:34:45;9.73;;;5.93;;
19780;SDS011;10050;55.492;13.506;2022-12-26T07:37:11;11.60;;;5.70;;
19780;SDS011;10050;55.492;13.506;2022-12-26T07:39:36;10.23;;;5.30;;
19780;SDS011;10050;55.492;13.506;2022-12-26T07:42:03;10.37;;;5.07;;
19780;SDS011;10050;55.492;13.506;2022-12-26T07:44:29;11.13;;;5.37;;
19780;SDS011;10050;55.492;13.506;2022-12-26T07:46:56;9.83;;;4.60;;
19780;SDS011;10050;55.492;13.506;2022-12-26T07:49:23;10.07;;;5.30;;
19780;SDS011;10050;55.492;13.506;2022-12-26T07:51:49;7.93;;;4.80;;
19780;SDS011;10050;55.492;13.506;2022-12-26T07:54:16;10.27;;;5.50;;
19780;SDS011;10050;55.492;13.506;2022-12-26T07:56:42;9.43;;;5.17;;
19780;SDS011;10050;55.492;13.506;2022-12-26T07:59:12;8.07;;;5.03;;
19780;SDS011;10050;55.492;13.506;2022-12-26T08:01:41;7.63;;;5.00;;
19780;SDS011;10050;55.492;13.506;2022-12-26T08:04:09;8.13;;;5.00;;
19780;SDS011;10050;55.492;13.506;2022-12-26T08:06:35;9.80;;;5.90;;
19780;SDS011;10050;55.492;13.506;2022-12-26T08:09:01;17.43;;;8.33;;
19780;SDS011;10050;55.492;13.506;2022-12-26T08:11:27;14.83;;;7.83;;
19780;SDS011;10050;55.492;13.506;2022-12-26T08:13:57;13.23;;;6.27;;
19780;SDS011;10050;55.492;13.506;2022-12-26T08:16:23;10.67;;;5.60;;
19780;SDS011;10050;55.492;13.506;2022-12-26T08:18:49;9.90;;;5.67;;
19780;SDS011;10050;55.492;13.506;2022-12-26T08:21:14;9.43;;;5.13;;
19780;SDS011;10050;55.492;13.506;2022-12-26T08:23:40;12.37;;;6.37;;
19780;SDS011;10050;55.492;13.506;2022-12-26T08:26:07;10.03;;;5.40;;
19780;SDS011;10050;55.492;13.506;2022-12-26T08:28:35;9.47;;;5.73;;
19780;SDS011;10050;55.492;13.506;2022-12-26T08:31:07;10.27;;;5.27;;
19780;SDS011;10050;55.492;13.506;2022-12-26T08:33:34;12.43;;;5.87;;
19780;SDS011;10050;55.492;13.506;2022-12-26T08:36:01;10.40;;;5.23;;
19780;SDS011;10050;55.492;13.506;2022-12-26T08:38:28;7.60;;;5.50;;
19780;SDS011;10050;55.492;13.506;2022-12-26T08:40:54;11.93;;;6.67;;
19780;SDS011;10050;55.492;13.506;2022-12-26T08:43:21;9.80;;;5.53;;
19780;SDS011;10050;55.492;13.506;2022-12-26T08:45:55;20.07;;;15.10;;
19780;SDS011;10050;55.492;13.506;2022-12-26T08:48:28;22.77;;;15.73;;
19780;SDS011;10050;55.492;13.506;2022-12-26T08:50:55;15.17;;;10.90;;
19780;SDS011;10050;55.492;13.506;2022-12-26T08:53:25;10.93;;;6.90;;
19780;SDS011;10050;55.492;13.506;2022-12-26T08:55:53;12.50;;;9.23;;
19780;SDS011;10050;55.492;13.506;2022-12-26T08:58:19;11.17;;;7.00;;
19780;SDS011;10050;55.492;13.506;2022-12-26T09:00:45;14.67;;;8.47;;
19780;SDS011;10050;55.492;13.506;2022-12-26T09:03:11;14.50;;;7.63;;
19780;SDS011;10050;55.492;13.506;2022-12-26T09:05:36;8.97;;;5.70;;
19780;SDS011;10050;55.492;13.506;2022-12-26T09:08:02;11.53;;;6.50;;
19780;SDS011;10050;55.492;13.506;2022-12-26T09:10:28;11.33;;;6.33;;
19780;SDS011;10050;55.492;13.506;2022-12-26T09:12:54;9.30;;;6.00;;
19780;SDS011;10050;55.492;13.506;2022-12-26T09:15:20;13.37;;;8.83;;
19780;SDS011;10050;55.492;13.506;2022-12-26T09:17:46;16.83;;;11.67;;
19780;SDS011;10050;55.492;13.506;2022-12-26T09:20:11;18.80;;;12.60;;
19780;SDS011;10050;55.492;13.506;2022-12-26T09:22:37;11.27;;;7.40;;
19780;SDS011;10050;55.492;13.506;2022-12-26T09:25:15;9.60;;;7.10;;
19780;SDS011;10050;55.492;13.506;2022-12-26T09:27:48;9.87;;;6.03;;
19780;SDS011;10050;55.492;13.506;2022-12-26T09:30:14;8.33;;;5.10;;
19780;SDS011;10050;55.492;13.506;2022-12-26T09:32:39;10.80;;;5.83;;
19780;SDS011;10050;55.492;13.506;2022-12-26T09:35:06;9.93;;;5.30;;
19780;SDS011;10050;55.492;13.506;2022-12-26T09:37:32;6.93;;;5.07;;
19780;SDS011;10050;55.492;13.506;2022-12-26T09:39:57;8.37;;;5.73;;
19780;SDS011;10050;55.492;13.506;2022-12-26T09:42:30;8.27;;;5.00;;
19780;SDS011;10050;55.492;13.506;2022-12-26T09:45:13;9.23;;;4.83;;
19780;SDS011;10050;55.492;13.506;2022-12-26T09:47:56;10.63;;;5.60;;
19780;SDS011;10050;55.492;13.506;2022-12-26T09:50:47;7.60;;;4.47;;
19780;SDS011;10050;55.492;13.506;2022-12-26T09:53:21;7.53;;;4.90;;
19780;SDS011;10050;55.492;13.506;2022-12-26T09:55:59;7.90;;;4.67;;
19780;SDS011;10050;55.492;13.506;2022-12-26T09:58:30;6.77;;;4.33;;
19780;SDS011;10050;55.492;13.506;2022-12-26T10:03:45;8.40;;;5.47;;
19780;SDS011;10050;55.492;13.506;2022-12-26T10:08:47;7.80;;;4.93;;
19780;SDS011;10050;55.492;13.506;2022-12-26T10:11:23;8.57;;;5.10;;
19780;SDS011;10050;55.492;13.506;2022-12-26T10:13:55;7.23;;;4.53;;
19780;SDS011;10050;55.492;13.506;2022-12-26T10:16:39;10.50;;;5.93;;
19780;SDS011;10050;55.492;13.506;2022-12-26T10:19:25;8.10;;;5.30;;
19780;SDS011;10050;55.492;13.506;2022-12-26T10:22:20;7.53;;;4.63;;
19780;SDS011;10050;55.492;13.506;2022-12-26T10:25:13;7.90;;;4.10;;
19780;SDS011;10050;55.492;13.506;2022-12-26T10:27:42;7.73;;;4.60;;
19780;SDS011;10050;55.492;13.506;2022-12-26T10:30:17;8.27;;;4.87;;
19780;SDS011;10050;55.492;13.506;2022-12-26T10:32:48;6.30;;;4.17;;
19780;SDS011;10050;55.492;13.506;2022-12-26T10:35:34;7.60;;;4.53;;
19780;SDS011;10050;55.492;13.506;2022-12-26T10:38:28;7.73;;;4.47;;
19780;SDS011;10050;55.492;13.506;2022-12-26T10:40:57;6.73;;;4.57;;
19780;SDS011;10050;55.492;13.506;2022-12-26T10:43:30;6.90;;;4.20;;
19780;SDS011;10050;55.492;13.506;2022-12-26T10:48:51;6.70;;;4.13;;
19780;SDS011;10050;55.492;13.506;2022-12-26T10:51:17;6.80;;;4.53;;
19780;SDS011;10050;55.492;13.506;2022-12-26T10:53:47;8.03;;;4.87;;
19780;SDS011;10050;55.492;13.506;2022-12-26T10:56:15;7.83;;;5.10;;
19780;SDS011;10050;55.492;13.506;2022-12-26T10:58:41;6.00;;;4.57;;
19780;SDS011;10050;55.492;13.506;2022-12-26T11:04:15;7.70;;;4.90;;
19780;SDS011;10050;55.492;13.506;2022-12-26T11:06:46;7.20;;;4.83;;
19780;SDS011;10050;55.492;13.506;2022-12-26T11:11:48;8.80;;;5.47;;
19780;SDS011;10050;55.492;13.506;2022-12-26T11:14:25;10.90;;;6.03;;
19780;SDS011;10050;55.492;13.506;2022-12-26T11:16:52;7.77;;;5.13;;
19780;SDS011;10050;55.492;13.506;2022-12-26T11:19:26;10.43;;;6.00;;
19780;SDS011;10050;55.492;13.506;2022-12-26T11:21:53;9.90;;;5.77;;
19780;SDS011;10050;55.492;13.506;2022-12-26T11:24:37;9.17;;;5.50;;
19780;SDS011;10050;55.492;13.506;2022-12-26T11:27:15;8.17;;;5.00;;
19780;SDS011;10050;55.492;13.506;2022-12-26T11:29:42;7.77;;;4.90;;
19780;SDS011;10050;55.492;13.506;2022-12-26T11:32:12;8.70;;;4.97;;
19780;SDS011;10050;55.492;13.506;2022-12-26T11:34:45;11.83;;;5.47;;
19780;SDS011;10050;55.492;13.506;2022-12-26T11:37:22;10.77;;;5.47;;
19780;SDS011;10050;55.492;13.506;2022-12-26T11:39:52;11.53;;;6.30;;
19780;SDS011;10050;55.492;13.506;2022-12-26T11:42:21;8.40;;;5.10;;
19780;SDS011;10050;55.492;13.506;2022-12-26T11:44:49;13.73;;;6.93;;
19780;SDS011;10050;55.492;13.506;2022-12-26T11:47:27;6.83;;;5.03;;
19780;SDS011;10050;55.492;13.506;2022-12-26T11:55:11;9.30;;;5.33;;
19780;SDS011;10050;55.492;13.506;2022-12-26T12:00:30;7.90;;;4.90;;
19780;SDS011;10050;55.492;13.506;2022-12-26T12:02:56;8.33;;;4.77;;
19780;SDS011;10050;55.492;13.506;2022-12-26T12:05:35;8.63;;;5.20;;
19780;SDS011;10050;55.492;13.506;2022-12-26T12:08:31;11.63;;;5.20;;
19780;SDS011;10050;55.492;13.506;2022-12-26T12:14:11;7.77;;;4.77;;
19780;SDS011;10050;55.492;13.506;2022-12-26T12:27:23;5.93;;;4.10;;
19780;SDS011;10050;55.492;13.506;2022-12-26T12:30:29;5.57;;;3.93;;
19780;SDS011;10050;55.492;13.506;2022-12-26T12:35:57;2.67;;;2.40;;
19780;SDS011;10050;55.492;13.506;2022-12-26T12:58:17;2.67;;;2.00;;
19780;SDS011;10050;55.492;13.506;2022-12-26T13:00:57;1.87;;;1.77;;
19780;SDS011;10050;55.492;13.506;2022-12-26T13:06:24;2.43;;;2.13;;
19780;SDS011;10050;55.492;13.506;2022-12-26T13:09:03;2.57;;;2.13;;
19780;SDS011;10050;55.492;13.506;2022-12-26T13:11:37;2.27;;;2.07;;
19780;SDS011;10050;55.492;13.506;2022-12-26T13:14:22;5.03;;;3.30;;
19780;SDS011;10050;55.492;13.506;2022-12-26T13:17:17;10.17;;;3.83;;
19780;SDS011;10050;55.492;13.506;2022-12-26T13:22:40;14.27;;;4.80;;
19780;SDS011;10050;55.492;13.506;2022-12-26T13:25:31;15.77;;;5.37;;
19780;SDS011;10050;55.492;13.506;2022-12-26T13:28:01;13.43;;;5.60;;
19780;SDS011;10050;55.492;13.506;2022-12-26T13:30:33;15.40;;;5.80;;
19780;SDS011;10050;55.492;13.506;2022-12-26T13:33:00;28.80;;;6.53;;
19780;SDS011;10050;55.492;13.506;2022-12-26T13:38:19;16.37;;;7.40;;
19780;SDS011;10050;55.492;13.506;2022-12-26T13:40:48;27.63;;;7.67;;
19780;SDS011;10050;55.492;13.506;2022-12-26T13:46:36;24.27;;;8.33;;
19780;SDS011;10050;55.492;13.506;2022-12-26T13:54:35;34.00;;;8.83;;
19780;SDS011;10050;55.492;13.506;2022-12-26T14:05:21;32.30;;;10.67;;
19780;SDS011;10050;55.492;13.506;2022-12-26T14:07:55;24.30;;;11.47;;
19780;SDS011;10050;55.492;13.506;2022-12-26T14:10:42;32.67;;;12.03;;
19780;SDS011;10050;55.492;13.506;2022-12-26T14:13:36;36.20;;;12.97;;
19780;SDS011;10050;55.492;13.506;2022-12-26T14:16:16;27.07;;;12.30;;
19780;SDS011;10050;55.492;13.506;2022-12-26T14:35:27;29.23;;;12.03;;
19780;SDS011;10050;55.492;13.506;2022-12-26T14:38:27;33.73;;;12.77;;
19780;SDS011;10050;55.492;13.506;2022-12-26T14:41:06;33.50;;;13.20;;
19780;SDS011;10050;55.492;13.506;2022-12-26T14:43:55;30.43;;;12.40;;
19780;SDS011;10050;55.492;13.506;2022-12-26T14:48:59;32.27;;;14.13;;
19780;SDS011;10050;55.492;13.506;2022-12-26T14:51:51;29.30;;;13.57;;
19780;SDS011;10050;55.492;13.506;2022-12-26T14:56:46;27.77;;;12.40;;
19780;SDS011;10050;55.492;13.506;2022-12-26T14:59:24;27.20;;;13.50;;
19780;SDS011;10050;55.492;13.506;2022-12-26T15:04:41;30.47;;;13.00;;
19780;SDS011;10050;55.492;13.506;2022-12-26T15:07:23;27.17;;;12.70;;
19780;SDS011;10050;55.492;13.506;2022-12-26T15:12:52;30.20;;;12.33;;
19780;SDS011;10050;55.492;13.506;2022-12-26T15:18:19;29.07;;;13.87;;
19780;SDS011;10050;55.492;13.506;2022-12-26T15:32:01;35.53;;;15.50;;
19780;SDS011;10050;55.492;13.506;2022-12-26T15:40:21;37.03;;;15.57;;
19780;SDS011;10050;55.492;13.506;2022-12-26T15:51:16;36.70;;;16.13;;
19780;SDS011;10050;55.492;13.506;2022-12-26T16:02:53;31.03;;;16.30;;
19780;SDS011;10050;55.492;13.506;2022-12-26T16:04:51;37.60;;;16.80;;
19780;SDS011;10050;55.492;13.506;2022-12-26T16:10:29;36.07;;;16.77;;
19780;SDS011;10050;55.492;13.506;2022-12-26T16:12:56;31.60;;;16.40;;
19780;SDS011;10050;55.492;13.506;2022-12-26T16:15:29;36.07;;;18.00;;
19780;SDS011;10050;55.492;13.506;2022-12-26T16:18:13;30.67;;;16.40;;
19780;SDS011;10050;55.492;13.506;2022-12-26T16:20:40;31.87;;;16.13;;
19780;SDS011;10050;55.492;13.506;2022-12-26T16:23:27;31.17;;;15.70;;
19780;SDS011;10050;55.492;13.506;2022-12-26T16:25:56;31.83;;;15.00;;
19780;SDS011;10050;55.492;13.506;2022-12-26T16:28:33;25.63;;;14.27;;
19780;SDS011;10050;55.492;13.506;2022-12-26T16:30:59;29.23;;;14.87;;
19780;SDS011;10050;55.492;13.506;2022-12-26T16:33:29;30.67;;;15.63;;
19780;SDS011;10050;55.492;13.506;2022-12-26T16:35:58;24.00;;;14.30;;
19780;SDS011;10050;55.492;13.506;2022-12-26T16:38:26;26.07;;;13.03;;
19780;SDS011;10050;55.492;13.506;2022-12-26T16:40:54;25.47;;;12.60;;
19780;SDS011;10050;55.492;13.506;2022-12-26T16:43:23;20.67;;;12.43;;
19780;SDS011;10050;55.492;13.506;2022-12-26T16:45:55;16.33;;;10.80;;
19780;SDS011;10050;55.492;13.506;2022-12-26T16:48:24;21.37;;;9.60;;
19780;SDS011;10050;55.492;13.506;2022-12-26T16:59:12;28.93;;;14.93;;
19780;SDS011;10050;55.492;13.506;2022-12-26T17:01:38;18.60;;;7.30;;
19780;SDS011;10050;55.492;13.506;2022-12-26T17:06:56;12.50;;;5.10;;
19780;SDS011;10050;55.492;13.506;2022-12-26T17:09:26;11.43;;;4.67;;
19780;SDS011;10050;55.492;13.506;2022-12-26T17:11:55;9.33;;;3.93;;
19780;SDS011;10050;55.492;13.506;2022-12-26T17:14:35;13.47;;;4.00;;
19780;SDS011;10050;55.492;13.506;2022-12-26T17:17:50;7.57;;;2.73;;
19780;SDS011;10050;55.492;13.506;2022-12-26T17:19:54;12.40;;;2.80;;
19780;SDS011;10050;55.492;13.506;2022-12-26T17:22:34;9.63;;;2.73;;
19780;SDS011;10050;55.492;13.506;2022-12-26T17:27:41;4.97;;;2.53;;
19780;SDS011;10050;55.492;13.506;2022-12-26T17:32:53;5.87;;;2.63;;
19780;SDS011;10050;55.492;13.506;2022-12-26T17:35:23;5.63;;;2.00;;
19780;SDS011;10050;55.492;13.506;2022-12-26T17:38:00;4.43;;;1.70;;
19780;SDS011;10050;55.492;13.506;2022-12-26T17:40:38;8.37;;;1.90;;
19780;SDS011;10050;55.492;13.506;2022-12-26T17:45:40;1.93;;;0.83;;
19780;SDS011;10050;55.492;13.506;2022-12-26T17:48:08;1.90;;;0.97;;
19780;SDS011;10050;55.492;13.506;2022-12-26T17:50:35;1.47;;;0.90;;
19780;SDS011;10050;55.492;13.506;2022-12-26T17:53:04;2.10;;;0.97;;
19780;SDS011;10050;55.492;13.506;2022-12-26T17:55:52;0.90;;;0.80;;
19780;SDS011;10050;55.492;13.506;2022-12-26T17:58:19;3.33;;;0.87;;
19780;SDS011;10050;55.492;13.506;2022-12-26T18:00:46;1.53;;;1.10;;
19780;SDS011;10050;55.492;13.506;2022-12-26T18:03:12;3.03;;;0.80;;
19780;SDS011;10050;55.492;13.506;2022-12-26T18:05:37;3.33;;;1.10;;
19780;SDS011;10050;55.492;13.506;2022-12-26T18:08:04;1.63;;;0.87;;
19780;SDS011;10050;55.492;13.506;2022-12-26T18:10:32;2.13;;;1.03;;
19780;SDS011;10050;55.492;13.506;2022-12-26T18:13:01;3.30;;;0.83;;
19780;SDS011;10050;55.492;13.506;2022-12-26T18:15:28;4.37;;;1.37;;
19780;SDS011;10050;55.492;13.506;2022-12-26T18:17:55;5.60;;;1.07;;
19780;SDS011;10050;55.492;13.506;2022-12-26T18:20:22;4.33;;;1.00;;
19780;SDS011;10050;55.492;13.506;2022-12-26T18:22:50;2.83;;;1.03;;
19780;SDS011;10050;55.492;13.506;2022-12-26T18:25:17;5.83;;;1.00;;